Archival Weather

Central Park

Central Park, New York (KNYC)

Report from: Tuesday, September 19, 2023 3:51 AM EDT
Current time: Monday, June 17, 2024 5:46 AM EDT

Current weather – Weather history – Daily summaries
Weather forecast

Temperature15.6°C (60.1°F)
Dew point12.8°C (55.0°F)
Winds 5 kts (2.6 m/s, 5.8 mph) Vrb
Winds variableWinds variable
Visibility10 mi. (16.1 km)
Clouds Sky clear
Altimeter29.86 in.Hg (1011 mB)
Relative humidity83 %
Density altitude377 ft. (115 m)
Sea-level pressure101.0 kPa (1010 mB, 29.83 in.Hg)
Remarks Fully automated report
System requires maintenance
Automated weather observing station with precipitation discriminator
Flight conditions Visual Meteorological Conditions
Raw dataKNYC 190751Z AUTO VRB05KT 10SM CLR 16/13 A2986 RMK AO2 SLP103 T01560128 $
An error has occurred. This application may no longer respond until reloaded. Reload 🗙